sensor_id;sensor_type;location;lat;lon;timestamp;temperature;humidity
3334;DHT22;1679;50.392;8.008;2023-06-22T00:01:28;21.80;99.90
3334;DHT22;1679;50.392;8.008;2023-06-22T00:03:54;21.90;99.90
3334;DHT22;1679;50.392;8.008;2023-06-22T00:06:19;21.80;99.90
3334;DHT22;1679;50.392;8.008;2023-06-22T00:08:45;21.80;99.90
3334;DHT22;1679;50.392;8.008;2023-06-22T00:11:11;21.80;99.90
3334;DHT22;1679;50.392;8.008;2023-06-22T00:13:37;21.80;99.90
3334;DHT22;1679;50.392;8.008;2023-06-22T00:16:03;21.70;99.90
3334;DHT22;1679;50.392;8.008;2023-06-22T00:18:29;21.70;99.90
3334;DHT22;1679;50.392;8.008;2023-06-22T00:20:55;21.80;99.90
3334;DHT22;1679;50.392;8.008;2023-06-22T00:23:23;21.80;99.90
3334;DHT22;1679;50.392;8.008;2023-06-22T00:25:49;21.80;99.90
3334;DHT22;1679;50.392;8.008;2023-06-22T00:28:15;21.80;99.90
3334;DHT22;1679;50.392;8.008;2023-06-22T00:30:40;21.80;99.90
3334;DHT22;1679;50.392;8.008;2023-06-22T00:33:06;21.80;99.90
3334;DHT22;1679;50.392;8.008;2023-06-22T00:35:33;21.80;99.90
3334;DHT22;1679;50.392;8.008;2023-06-22T00:38:00;21.80;99.90
3334;DHT22;1679;50.392;8.008;2023-06-22T00:40:27;21.80;99.90
3334;DHT22;1679;50.392;8.008;2023-06-22T00:42:53;21.60;99.90
3334;DHT22;1679;50.392;8.008;2023-06-22T00:45:18;21.50;99.90
3334;DHT22;1679;50.392;8.008;2023-06-22T00:47:44;21.50;99.90
3334;DHT22;1679;50.392;8.008;2023-06-22T00:50:13;21.40;99.90
3334;DHT22;1679;50.392;8.008;2023-06-22T00:52:43;21.40;99.90
3334;DHT22;1679;50.392;8.008;2023-06-22T00:55:09;21.30;99.90
3334;DHT22;1679;50.392;8.008;2023-06-22T00:57:35;21.20;99.90
3334;DHT22;1679;50.392;8.008;2023-06-22T01:00:02;21.20;99.90
3334;DHT22;1679;50.392;8.008;2023-06-22T01:02:31;21.20;99.90
3334;DHT22;1679;50.392;8.008;2023-06-22T01:04:57;21.20;99.90
3334;DHT22;1679;50.392;8.008;2023-06-22T01:07:35;21.20;99.90
3334;DHT22;1679;50.392;8.008;2023-06-22T01:10:18;21.10;99.90
3334;DHT22;1679;50.392;8.008;2023-06-22T01:13:14;21.10;99.90
3334;DHT22;1679;50.392;8.008;2023-06-22T01:15:37;21.20;99.90
3334;DHT22;1679;50.392;8.008;2023-06-22T01:18:05;21.20;99.90
3334;DHT22;1679;50.392;8.008;2023-06-22T01:20:34;21.30;99.90
3334;DHT22;1679;50.392;8.008;2023-06-22T01:23:27;21.20;99.90
3334;DHT22;1679;50.392;8.008;2023-06-22T01:26:08;21.20;99.90
3334;DHT22;1679;50.392;8.008;2023-06-22T01:28:51;21.20;99.90
3334;DHT22;1679;50.392;8.008;2023-06-22T01:31:20;21.10;99.90
3334;DHT22;1679;50.392;8.008;2023-06-22T01:33:55;21.10;99.90
3334;DHT22;1679;50.392;8.008;2023-06-22T01:36:23;21.00;99.90
3334;DHT22;1679;50.392;8.008;2023-06-22T01:38:49;20.90;99.90
3334;DHT22;1679;50.392;8.008;2023-06-22T01:41:16;20.90;99.90
3334;DHT22;1679;50.392;8.008;2023-06-22T01:43:42;20.80;99.90
3334;DHT22;1679;50.392;8.008;2023-06-22T01:46:09;20.80;99.90
3334;DHT22;1679;50.392;8.008;2023-06-22T01:48:35;20.80;99.90
3334;DHT22;1679;50.392;8.008;2023-06-22T01:51:02;20.80;99.90
3334;DHT22;1679;50.392;8.008;2023-06-22T01:53:27;20.80;99.90
3334;DHT22;1679;50.392;8.008;2023-06-22T01:55:53;20.80;99.90
3334;DHT22;1679;50.392;8.008;2023-06-22T01:58:20;20.80;99.90
3334;DHT22;1679;50.392;8.008;2023-06-22T02:00:53;20.70;99.90
3334;DHT22;1679;50.392;8.008;2023-06-22T02:03:22;20.70;99.90
3334;DHT22;1679;50.392;8.008;2023-06-22T02:05:51;20.50;99.90
3334;DHT22;1679;50.392;8.008;2023-06-22T02:08:23;20.40;99.90
3334;DHT22;1679;50.392;8.008;2023-06-22T02:10:51;20.20;99.90
3334;DHT22;1679;50.392;8.008;2023-06-22T02:13:18;20.10;99.90
3334;DHT22;1679;50.392;8.008;2023-06-22T02:15:45;20.10;99.90
3334;DHT22;1679;50.392;8.008;2023-06-22T02:18:11;20.10;99.90
3334;DHT22;1679;50.392;8.008;2023-06-22T02:20:38;20.00;99.90
3334;DHT22;1679;50.392;8.008;2023-06-22T02:23:05;20.00;99.90
3334;DHT22;1679;50.392;8.008;2023-06-22T02:25:31;20.00;99.90
3334;DHT22;1679;50.392;8.008;2023-06-22T02:27:57;20.10;99.90
3334;DHT22;1679;50.392;8.008;2023-06-22T02:30:22;20.10;99.90
3334;DHT22;1679;50.392;8.008;2023-06-22T02:32:48;20.10;99.90
3334;DHT22;1679;50.392;8.008;2023-06-22T02:35:14;20.10;99.90
3334;DHT22;1679;50.392;8.008;2023-06-22T02:37:39;20.10;99.90
3334;DHT22;1679;50.392;8.008;2023-06-22T02:40:08;20.10;99.90
3334;DHT22;1679;50.392;8.008;2023-06-22T02:42:37;20.10;99.90
3334;DHT22;1679;50.392;8.008;2023-06-22T02:45:03;20.10;99.90
3334;DHT22;1679;50.392;8.008;2023-06-22T02:47:29;20.10;99.90
3334;DHT22;1679;50.392;8.008;2023-06-22T02:49:54;20.10;99.90
3334;DHT22;1679;50.392;8.008;2023-06-22T02:52:20;20.10;99.90
3334;DHT22;1679;50.392;8.008;2023-06-22T02:54:45;19.90;99.90
3334;DHT22;1679;50.392;8.008;2023-06-22T02:57:11;19.90;99.90
3334;DHT22;1679;50.392;8.008;2023-06-22T02:59:40;19.90;99.90
3334;DHT22;1679;50.392;8.008;2023-06-22T03:02:07;19.80;99.90
3334;DHT22;1679;50.392;8.008;2023-06-22T03:04:34;19.80;99.90
3334;DHT22;1679;50.392;8.008;2023-06-22T03:06:59;19.70;99.90
3334;DHT22;1679;50.392;8.008;2023-06-22T03:09:27;19.70;99.90
3334;DHT22;1679;50.392;8.008;2023-06-22T03:11:55;19.70;99.90
3334;DHT22;1679;50.392;8.008;2023-06-22T03:14:20;19.70;99.90
3334;DHT22;1679;50.392;8.008;2023-06-22T03:16:46;19.70;99.90
3334;DHT22;1679;50.392;8.008;2023-06-22T03:19:12;19.70;99.90
3334;DHT22;1679;50.392;8.008;2023-06-22T03:21:38;19.80;99.90
3334;DHT22;1679;50.392;8.008;2023-06-22T03:24:07;19.80;99.90
3334;DHT22;1679;50.392;8.008;2023-06-22T03:26:33;19.70;99.90
3334;DHT22;1679;50.392;8.008;2023-06-22T03:29:00;19.70;99.90
3334;DHT22;1679;50.392;8.008;2023-06-22T03:31:26;19.70;99.90
3334;DHT22;1679;50.392;8.008;2023-06-22T03:33:51;19.70;99.90
3334;DHT22;1679;50.392;8.008;2023-06-22T03:36:17;19.80;99.90
3334;DHT22;1679;50.392;8.008;2023-06-22T03:38:47;19.90;99.90
3334;DHT22;1679;50.392;8.008;2023-06-22T03:41:13;19.80;99.90
3334;DHT22;1679;50.392;8.008;2023-06-22T03:43:39;19.70;99.90
3334;DHT22;1679;50.392;8.008;2023-06-22T03:46:05;19.70;99.90
3334;DHT22;1679;50.392;8.008;2023-06-22T03:48:31;19.60;99.90
3334;DHT22;1679;50.392;8.008;2023-06-22T03:50:59;19.70;99.90
3334;DHT22;1679;50.392;8.008;2023-06-22T03:53:24;19.70;99.90
3334;DHT22;1679;50.392;8.008;2023-06-22T03:55:51;19.70;99.90
3334;DHT22;1679;50.392;8.008;2023-06-22T03:58:18;19.70;99.90
3334;DHT22;1679;50.392;8.008;2023-06-22T04:00:50;19.70;99.90
3334;DHT22;1679;50.392;8.008;2023-06-22T04:03:17;19.70;99.90
3334;DHT22;1679;50.392;8.008;2023-06-22T04:05:47;19.70;99.90
3334;DHT22;1679;50.392;8.008;2023-06-22T04:08:14;19.70;99.90
3334;DHT22;1679;50.392;8.008;2023-06-22T04:10:39;19.80;99.90
3334;DHT22;1679;50.392;8.008;2023-06-22T04:13:05;19.90;99.90
3334;DHT22;1679;50.392;8.008;2023-06-22T04:15:30;19.90;99.90
3334;DHT22;1679;50.392;8.008;2023-06-22T04:17:56;19.90;99.90
3334;DHT22;1679;50.392;8.008;2023-06-22T04:20:22;19.90;99.90
3334;DHT22;1679;50.392;8.008;2023-06-22T04:22:48;20.00;99.90
3334;DHT22;1679;50.392;8.008;2023-06-22T04:25:14;20.10;99.90
3334;DHT22;1679;50.392;8.008;2023-06-22T04:27:39;20.10;99.90
3334;DHT22;1679;50.392;8.008;2023-06-22T04:30:07;20.20;99.90
3334;DHT22;1679;50.392;8.008;2023-06-22T04:32:34;20.20;99.90
3334;DHT22;1679;50.392;8.008;2023-06-22T04:35:02;20.30;99.90
3334;DHT22;1679;50.392;8.008;2023-06-22T04:37:30;20.30;99.90
3334;DHT22;1679;50.392;8.008;2023-06-22T04:39:55;20.30;99.90
3334;DHT22;1679;50.392;8.008;2023-06-22T04:42:21;20.40;99.90
3334;DHT22;1679;50.392;8.008;2023-06-22T04:44:46;20.40;99.90
3334;DHT22;1679;50.392;8.008;2023-06-22T04:47:13;20.50;99.90
3334;DHT22;1679;50.392;8.008;2023-06-22T04:49:39;20.50;99.90
3334;DHT22;1679;50.392;8.008;2023-06-22T04:52:08;20.60;99.90
3334;DHT22;1679;50.392;8.008;2023-06-22T04:54:35;20.70;99.90
3334;DHT22;1679;50.392;8.008;2023-06-22T04:57:02;20.70;99.90
3334;DHT22;1679;50.392;8.008;2023-06-22T04:59:30;20.80;99.90
3334;DHT22;1679;50.392;8.008;2023-06-22T05:01:56;20.80;99.90
3334;DHT22;1679;50.392;8.008;2023-06-22T05:04:24;20.80;99.90
3334;DHT22;1679;50.392;8.008;2023-06-22T05:06:54;20.80;99.90
3334;DHT22;1679;50.392;8.008;2023-06-22T05:09:20;20.90;99.90
3334;DHT22;1679;50.392;8.008;2023-06-22T05:11:46;20.90;99.90
3334;DHT22;1679;50.392;8.008;2023-06-22T05:14:12;21.00;99.90
3334;DHT22;1679;50.392;8.008;2023-06-22T05:16:37;21.10;99.90
3334;DHT22;1679;50.392;8.008;2023-06-22T05:19:04;21.20;99.90
3334;DHT22;1679;50.392;8.008;2023-06-22T05:21:30;21.30;99.90
3334;DHT22;1679;50.392;8.008;2023-06-22T05:23:57;21.50;99.90
3334;DHT22;1679;50.392;8.008;2023-06-22T05:26:26;21.50;99.90
3334;DHT22;1679;50.392;8.008;2023-06-22T05:28:52;21.60;99.90
3334;DHT22;1679;50.392;8.008;2023-06-22T05:31:18;21.60;99.90
3334;DHT22;1679;50.392;8.008;2023-06-22T05:33:48;21.60;99.90
3334;DHT22;1679;50.392;8.008;2023-06-22T05:36:31;21.60;99.90
3334;DHT22;1679;50.392;8.008;2023-06-22T05:38:59;21.60;99.90
3334;DHT22;1679;50.392;8.008;2023-06-22T05:41:36;21.70;99.90
3334;DHT22;1679;50.392;8.008;2023-06-22T05:44:01;21.80;99.90
3334;DHT22;1679;50.392;8.008;2023-06-22T05:46:27;22.00;99.90
3334;DHT22;1679;50.392;8.008;2023-06-22T05:48:54;22.10;99.90
3334;DHT22;1679;50.392;8.008;2023-06-22T05:51:19;22.10;99.90
3334;DHT22;1679;50.392;8.008;2023-06-22T05:53:45;22.10;99.90
3334;DHT22;1679;50.392;8.008;2023-06-22T05:56:15;22.10;99.90
3334;DHT22;1679;50.392;8.008;2023-06-22T05:58:40;22.30;99.90
3334;DHT22;1679;50.392;8.008;2023-06-22T06:01:06;22.40;99.90
3334;DHT22;1679;50.392;8.008;2023-06-22T06:03:31;22.40;99.90
3334;DHT22;1679;50.392;8.008;2023-06-22T06:05:57;22.50;99.90
3334;DHT22;1679;50.392;8.008;2023-06-22T06:08:22;22.50;99.90
3334;DHT22;1679;50.392;8.008;2023-06-22T06:10:48;22.60;99.90
3334;DHT22;1679;50.392;8.008;2023-06-22T06:13:13;22.70;99.90
3334;DHT22;1679;50.392;8.008;2023-06-22T06:15:39;22.90;99.90
3334;DHT22;1679;50.392;8.008;2023-06-22T06:18:05;23.10;99.90
3334;DHT22;1679;50.392;8.008;2023-06-22T06:20:31;23.10;99.90
3334;DHT22;1679;50.392;8.008;2023-06-22T06:22:57;23.40;99.90
3334;DHT22;1679;50.392;8.008;2023-06-22T06:25:23;23.60;99.90
3334;DHT22;1679;50.392;8.008;2023-06-22T06:27:50;23.70;99.90
3334;DHT22;1679;50.392;8.008;2023-06-22T06:30:18;23.80;99.90
3334;DHT22;1679;50.392;8.008;2023-06-22T06:32:45;23.90;99.90
3334;DHT22;1679;50.392;8.008;2023-06-22T06:35:12;23.90;99.90
3334;DHT22;1679;50.392;8.008;2023-06-22T06:37:40;24.00;99.90
3334;DHT22;1679;50.392;8.008;2023-06-22T06:40:06;24.20;99.90
3334;DHT22;1679;50.392;8.008;2023-06-22T06:42:41;24.40;99.90
3334;DHT22;1679;50.392;8.008;2023-06-22T06:47:43;24.60;99.90
3334;DHT22;1679;50.392;8.008;2023-06-22T06:50:08;24.70;99.90
3334;DHT22;1679;50.392;8.008;2023-06-22T06:52:35;24.60;99.90
3334;DHT22;1679;50.392;8.008;2023-06-22T06:55:00;24.70;99.90
3334;DHT22;1679;50.392;8.008;2023-06-22T06:57:29;25.10;99.90
3334;DHT22;1679;50.392;8.008;2023-06-22T06:59:56;25.00;99.90
3334;DHT22;1679;50.392;8.008;2023-06-22T07:02:22;25.00;99.90
3334;DHT22;1679;50.392;8.008;2023-06-22T07:04:48;25.10;99.90
3334;DHT22;1679;50.392;8.008;2023-06-22T07:07:14;25.00;99.90
3334;DHT22;1679;50.392;8.008;2023-06-22T07:09:39;24.80;99.90
3334;DHT22;1679;50.392;8.008;2023-06-22T07:12:05;24.60;99.90
3334;DHT22;1679;50.392;8.008;2023-06-22T07:14:31;24.30;99.90
3334;DHT22;1679;50.392;8.008;2023-06-22T07:16:57;24.40;99.90
3334;DHT22;1679;50.392;8.008;2023-06-22T07:19:27;24.50;99.90
3334;DHT22;1679;50.392;8.008;2023-06-22T07:21:53;24.80;99.90
3334;DHT22;1679;50.392;8.008;2023-06-22T07:24:19;25.00;99.90
3334;DHT22;1679;50.392;8.008;2023-06-22T07:26:50;24.90;99.90
3334;DHT22;1679;50.392;8.008;2023-06-22T07:29:20;24.90;99.90
3334;DHT22;1679;50.392;8.008;2023-06-22T07:31:47;25.00;99.90
3334;DHT22;1679;50.392;8.008;2023-06-22T07:34:13;25.10;99.90
3334;DHT22;1679;50.392;8.008;2023-06-22T07:36:38;25.10;99.90
3334;DHT22;1679;50.392;8.008;2023-06-22T07:39:04;25.10;99.90
3334;DHT22;1679;50.392;8.008;2023-06-22T07:41:30;25.40;99.90
3334;DHT22;1679;50.392;8.008;2023-06-22T07:43:56;25.90;99.90
3334;DHT22;1679;50.392;8.008;2023-06-22T07:46:22;26.40;99.90
3334;DHT22;1679;50.392;8.008;2023-06-22T07:48:48;26.80;99.90
3334;DHT22;1679;50.392;8.008;2023-06-22T07:51:13;26.90;99.90
3334;DHT22;1679;50.392;8.008;2023-06-22T07:53:41;27.20;99.90
3334;DHT22;1679;50.392;8.008;2023-06-22T07:56:07;27.60;99.90
3334;DHT22;1679;50.392;8.008;2023-06-22T07:58:32;28.10;99.90
3334;DHT22;1679;50.392;8.008;2023-06-22T08:00:58;28.40;99.90
3334;DHT22;1679;50.392;8.008;2023-06-22T08:03:24;28.00;99.90
3334;DHT22;1679;50.392;8.008;2023-06-22T08:05:50;28.20;99.90
3334;DHT22;1679;50.392;8.008;2023-06-22T08:08:15;28.70;99.90
3334;DHT22;1679;50.392;8.008;2023-06-22T08:10:42;28.70;99.90
3334;DHT22;1679;50.392;8.008;2023-06-22T08:13:07;28.20;99.90
3334;DHT22;1679;50.392;8.008;2023-06-22T08:15:33;28.50;99.90
3334;DHT22;1679;50.392;8.008;2023-06-22T08:17:59;29.00;99.90
3334;DHT22;1679;50.392;8.008;2023-06-22T08:20:27;29.50;99.90
3334;DHT22;1679;50.392;8.008;2023-06-22T08:22:54;29.50;99.90
3334;DHT22;1679;50.392;8.008;2023-06-22T08:25:19;29.60;99.90
3334;DHT22;1679;50.392;8.008;2023-06-22T08:27:47;29.20;99.90
3334;DHT22;1679;50.392;8.008;2023-06-22T08:30:14;28.70;99.90
3334;DHT22;1679;50.392;8.008;2023-06-22T08:32:42;28.60;99.90
3334;DHT22;1679;50.392;8.008;2023-06-22T08:35:08;28.50;99.90
3334;DHT22;1679;50.392;8.008;2023-06-22T08:37:35;28.40;99.90
3334;DHT22;1679;50.392;8.008;2023-06-22T08:40:02;28.40;99.90
3334;DHT22;1679;50.392;8.008;2023-06-22T08:42:33;28.70;99.90
3334;DHT22;1679;50.392;8.008;2023-06-22T08:44:58;28.80;99.90
3334;DHT22;1679;50.392;8.008;2023-06-22T08:47:24;28.80;99.90
3334;DHT22;1679;50.392;8.008;2023-06-22T08:49:50;29.10;99.90
3334;DHT22;1679;50.392;8.008;2023-06-22T08:52:17;28.60;99.90
3334;DHT22;1679;50.392;8.008;2023-06-22T08:54:44;28.20;99.90
3334;DHT22;1679;50.392;8.008;2023-06-22T08:57:09;28.30;99.90
3334;DHT22;1679;50.392;8.008;2023-06-22T08:59:35;27.90;99.90
3334;DHT22;1679;50.392;8.008;2023-06-22T09:02:00;28.00;99.90
3334;DHT22;1679;50.392;8.008;2023-06-22T09:04:26;28.30;99.90
3334;DHT22;1679;50.392;8.008;2023-06-22T09:06:51;28.60;99.90
3334;DHT22;1679;50.392;8.008;2023-06-22T09:09:18;29.10;99.90
3334;DHT22;1679;50.392;8.008;2023-06-22T09:11:44;29.40;99.90
3334;DHT22;1679;50.392;8.008;2023-06-22T09:14:10;29.90;99.90
3334;DHT22;1679;50.392;8.008;2023-06-22T09:16:36;30.20;99.90
3334;DHT22;1679;50.392;8.008;2023-06-22T09:19:01;30.40;99.90
3334;DHT22;1679;50.392;8.008;2023-06-22T09:21:27;30.40;99.90
3334;DHT22;1679;50.392;8.008;2023-06-22T09:23:52;30.40;99.90
3334;DHT22;1679;50.392;8.008;2023-06-22T09:26:18;30.60;99.90
3334;DHT22;1679;50.392;8.008;2023-06-22T09:28:44;30.50;99.90
3334;DHT22;1679;50.392;8.008;2023-06-22T09:31:10;30.50;99.90
3334;DHT22;1679;50.392;8.008;2023-06-22T09:33:36;30.80;99.90
3334;DHT22;1679;50.392;8.008;2023-06-22T09:36:01;30.80;99.90
3334;DHT22;1679;50.392;8.008;2023-06-22T09:38:27;31.10;99.90
3334;DHT22;1679;50.392;8.008;2023-06-22T09:40:52;31.20;99.90
3334;DHT22;1679;50.392;8.008;2023-06-22T09:43:18;31.00;99.90
3334;DHT22;1679;50.392;8.008;2023-06-22T09:45:43;30.80;99.90
3334;DHT22;1679;50.392;8.008;2023-06-22T09:48:09;30.80;99.90
3334;DHT22;1679;50.392;8.008;2023-06-22T09:50:37;30.70;99.90
3334;DHT22;1679;50.392;8.008;2023-06-22T09:53:03;30.80;99.90
3334;DHT22;1679;50.392;8.008;2023-06-22T09:55:28;30.90;99.90
3334;DHT22;1679;50.392;8.008;2023-06-22T09:57:54;31.10;99.90
3334;DHT22;1679;50.392;8.008;2023-06-22T10:00:21;31.30;99.90
3334;DHT22;1679;50.392;8.008;2023-06-22T10:02:48;31.10;99.90
3334;DHT22;1679;50.392;8.008;2023-06-22T10:05:13;31.00;99.90
3334;DHT22;1679;50.392;8.008;2023-06-22T10:07:39;30.80;99.90
3334;DHT22;1679;50.392;8.008;2023-06-22T10:10:08;30.80;99.90
3334;DHT22;1679;50.392;8.008;2023-06-22T10:12:34;30.50;99.90
3334;DHT22;1679;50.392;8.008;2023-06-22T10:14:59;30.30;99.90
3334;DHT22;1679;50.392;8.008;2023-06-22T10:17:25;29.90;99.90
3334;DHT22;1679;50.392;8.008;2023-06-22T10:19:50;29.80;99.90
3334;DHT22;1679;50.392;8.008;2023-06-22T10:22:16;30.00;99.90
3334;DHT22;1679;50.392;8.008;2023-06-22T10:24:41;30.00;99.90
3334;DHT22;1679;50.392;8.008;2023-06-22T10:27:11;29.90;99.90
3334;DHT22;1679;50.392;8.008;2023-06-22T10:29:37;29.90;99.90
3334;DHT22;1679;50.392;8.008;2023-06-22T10:32:03;30.10;99.90
3334;DHT22;1679;50.392;8.008;2023-06-22T10:34:28;30.20;99.90
3334;DHT22;1679;50.392;8.008;2023-06-22T10:36:54;30.20;99.90
3334;DHT22;1679;50.392;8.008;2023-06-22T10:39:19;30.20;99.90
3334;DHT22;1679;50.392;8.008;2023-06-22T10:41:45;30.20;99.90
3334;DHT22;1679;50.392;8.008;2023-06-22T10:44:10;30.50;99.90
3334;DHT22;1679;50.392;8.008;2023-06-22T10:46:36;30.70;99.90
3334;DHT22;1679;50.392;8.008;2023-06-22T10:49:01;30.60;99.90
3334;DHT22;1679;50.392;8.008;2023-06-22T10:51:27;30.80;99.90
3334;DHT22;1679;50.392;8.008;2023-06-22T10:53:53;30.70;99.90
3334;DHT22;1679;50.392;8.008;2023-06-22T10:56:19;30.50;99.90
3334;DHT22;1679;50.392;8.008;2023-06-22T10:58:45;30.30;99.90
3334;DHT22;1679;50.392;8.008;2023-06-22T11:01:10;30.30;99.90
3334;DHT22;1679;50.392;8.008;2023-06-22T11:03:36;30.50;99.90
3334;DHT22;1679;50.392;8.008;2023-06-22T11:06:01;31.00;99.90
3334;DHT22;1679;50.392;8.008;2023-06-22T11:08:27;31.00;99.90
3334;DHT22;1679;50.392;8.008;2023-06-22T11:10:52;31.30;99.90
3334;DHT22;1679;50.392;8.008;2023-06-22T11:13:18;31.20;99.90
3334;DHT22;1679;50.392;8.008;2023-06-22T11:15:43;30.60;99.90
3334;DHT22;1679;50.392;8.008;2023-06-22T11:18:09;30.60;99.90
3334;DHT22;1679;50.392;8.008;2023-06-22T11:20:35;30.60;99.90
3334;DHT22;1679;50.392;8.008;2023-06-22T11:23:12;30.70;99.90
3334;DHT22;1679;50.392;8.008;2023-06-22T11:25:37;30.90;99.90
3334;DHT22;1679;50.392;8.008;2023-06-22T11:28:03;31.00;99.90
3334;DHT22;1679;50.392;8.008;2023-06-22T11:30:29;30.80;99.90
3334;DHT22;1679;50.392;8.008;2023-06-22T11:32:56;30.50;99.90
3334;DHT22;1679;50.392;8.008;2023-06-22T11:35:22;30.30;99.90
3334;DHT22;1679;50.392;8.008;2023-06-22T11:37:48;30.20;99.90
3334;DHT22;1679;50.392;8.008;2023-06-22T11:40:13;30.20;99.90
3334;DHT22;1679;50.392;8.008;2023-06-22T11:42:39;30.40;99.90
3334;DHT22;1679;50.392;8.008;2023-06-22T11:45:06;30.70;99.90
3334;DHT22;1679;50.392;8.008;2023-06-22T11:47:32;30.80;99.90
3334;DHT22;1679;50.392;8.008;2023-06-22T11:49:58;30.80;99.90
3334;DHT22;1679;50.392;8.008;2023-06-22T11:52:23;31.00;99.90
3334;DHT22;1679;50.392;8.008;2023-06-22T11:54:49;31.30;99.90
3334;DHT22;1679;50.392;8.008;2023-06-22T11:57:14;31.60;99.90
3334;DHT22;1679;50.392;8.008;2023-06-22T11:59:39;31.70;99.90
3334;DHT22;1679;50.392;8.008;2023-06-22T12:02:05;31.80;99.90
3334;DHT22;1679;50.392;8.008;2023-06-22T12:04:32;31.80;99.90
3334;DHT22;1679;50.392;8.008;2023-06-22T12:06:58;31.90;99.90
3334;DHT22;1679;50.392;8.008;2023-06-22T12:09:24;31.90;99.90
3334;DHT22;1679;50.392;8.008;2023-06-22T12:11:49;31.60;99.90
3334;DHT22;1679;50.392;8.008;2023-06-22T12:14:15;31.50;99.90
3334;DHT22;1679;50.392;8.008;2023-06-22T12:16:41;31.30;99.90
3334;DHT22;1679;50.392;8.008;2023-06-22T12:19:06;31.30;99.90
3334;DHT22;1679;50.392;8.008;2023-06-22T12:21:32;31.50;99.90
3334;DHT22;1679;50.392;8.008;2023-06-22T12:23:57;31.50;99.90
3334;DHT22;1679;50.392;8.008;2023-06-22T12:26:23;31.40;99.90
3334;DHT22;1679;50.392;8.008;2023-06-22T12:28:48;31.20;99.90
3334;DHT22;1679;50.392;8.008;2023-06-22T12:31:14;31.20;99.90
3334;DHT22;1679;50.392;8.008;2023-06-22T12:33:40;31.20;99.90
3334;DHT22;1679;50.392;8.008;2023-06-22T12:36:05;31.10;99.90
3334;DHT22;1679;50.392;8.008;2023-06-22T12:38:31;31.20;99.90
3334;DHT22;1679;50.392;8.008;2023-06-22T12:40:56;31.30;99.90
3334;DHT22;1679;50.392;8.008;2023-06-22T12:43:22;31.20;99.90
3334;DHT22;1679;50.392;8.008;2023-06-22T12:45:47;31.10;99.90
3334;DHT22;1679;50.392;8.008;2023-06-22T12:48:13;31.00;99.90
3334;DHT22;1679;50.392;8.008;2023-06-22T12:50:38;31.00;99.90
3334;DHT22;1679;50.392;8.008;2023-06-22T12:53:04;31.10;99.90
3334;DHT22;1679;50.392;8.008;2023-06-22T12:55:31;30.90;99.90
3334;DHT22;1679;50.392;8.008;2023-06-22T12:57:57;30.80;99.90
3334;DHT22;1679;50.392;8.008;2023-06-22T13:00:22;30.60;99.90
3334;DHT22;1679;50.392;8.008;2023-06-22T13:02:49;30.70;99.90
3334;DHT22;1679;50.392;8.008;2023-06-22T13:05:15;30.80;99.90
3334;DHT22;1679;50.392;8.008;2023-06-22T13:07:40;30.90;99.90
3334;DHT22;1679;50.392;8.008;2023-06-22T13:10:08;31.00;99.90
3334;DHT22;1679;50.392;8.008;2023-06-22T13:12:34;31.00;99.90
3334;DHT22;1679;50.392;8.008;2023-06-22T13:14:59;31.10;99.90
3334;DHT22;1679;50.392;8.008;2023-06-22T13:17:25;31.20;99.90
3334;DHT22;1679;50.392;8.008;2023-06-22T13:19:50;31.10;99.90
3334;DHT22;1679;50.392;8.008;2023-06-22T13:22:30;31.10;99.90
3334;DHT22;1679;50.392;8.008;2023-06-22T13:24:56;31.10;99.90
3334;DHT22;1679;50.392;8.008;2023-06-22T13:27:22;31.10;99.90
3334;DHT22;1679;50.392;8.008;2023-06-22T13:29:48;31.00;99.90
3334;DHT22;1679;50.392;8.008;2023-06-22T13:32:13;31.00;99.90
3334;DHT22;1679;50.392;8.008;2023-06-22T13:34:39;31.20;99.90
3334;DHT22;1679;50.392;8.008;2023-06-22T13:37:06;31.30;99.90
3334;DHT22;1679;50.392;8.008;2023-06-22T13:39:31;31.30;99.90
3334;DHT22;1679;50.392;8.008;2023-06-22T13:41:58;31.30;99.90
3334;DHT22;1679;50.392;8.008;2023-06-22T13:44:23;31.30;99.90
3334;DHT22;1679;50.392;8.008;2023-06-22T13:46:53;31.20;99.90
3334;DHT22;1679;50.392;8.008;2023-06-22T13:49:18;31.30;99.90
3334;DHT22;1679;50.392;8.008;2023-06-22T13:51:45;31.30;99.90
3334;DHT22;1679;50.392;8.008;2023-06-22T13:54:14;31.40;99.90
3334;DHT22;1679;50.392;8.008;2023-06-22T13:56:40;31.40;99.90
3334;DHT22;1679;50.392;8.008;2023-06-22T13:59:05;31.50;99.90
3334;DHT22;1679;50.392;8.008;2023-06-22T14:01:34;31.40;99.90
3334;DHT22;1679;50.392;8.008;2023-06-22T14:04:00;31.30;99.90
3334;DHT22;1679;50.392;8.008;2023-06-22T14:06:27;31.30;99.90
3334;DHT22;1679;50.392;8.008;2023-06-22T14:08:52;31.10;99.90
3334;DHT22;1679;50.392;8.008;2023-06-22T14:11:18;31.00;99.90
3334;DHT22;1679;50.392;8.008;2023-06-22T14:13:43;30.80;99.90
3334;DHT22;1679;50.392;8.008;2023-06-22T14:16:09;30.70;99.90
3334;DHT22;1679;50.392;8.008;2023-06-22T14:18:34;30.60;99.90
3334;DHT22;1679;50.392;8.008;2023-06-22T14:21:00;30.40;99.90
3334;DHT22;1679;50.392;8.008;2023-06-22T14:23:27;30.20;99.90
3334;DHT22;1679;50.392;8.008;2023-06-22T14:25:52;30.00;99.90
3334;DHT22;1679;50.392;8.008;2023-06-22T14:28:18;29.70;99.90
3334;DHT22;1679;50.392;8.008;2023-06-22T14:30:43;28.90;99.90
3334;DHT22;1679;50.392;8.008;2023-06-22T14:33:09;28.20;99.90
3334;DHT22;1679;50.392;8.008;2023-06-22T14:35:34;26.20;99.90
3334;DHT22;1679;50.392;8.008;2023-06-22T14:38:00;24.40;99.90
3334;DHT22;1679;50.392;8.008;2023-06-22T14:40:25;23.50;99.90
3334;DHT22;1679;50.392;8.008;2023-06-22T14:42:52;23.00;99.90
3334;DHT22;1679;50.392;8.008;2023-06-22T14:45:17;22.70;99.90
3334;DHT22;1679;50.392;8.008;2023-06-22T14:47:43;22.50;99.90
3334;DHT22;1679;50.392;8.008;2023-06-22T14:50:08;22.40;99.90
3334;DHT22;1679;50.392;8.008;2023-06-22T14:52:34;22.30;99.90
3334;DHT22;1679;50.392;8.008;2023-06-22T14:54:59;22.30;99.90
3334;DHT22;1679;50.392;8.008;2023-06-22T14:57:25;22.40;99.90
3334;DHT22;1679;50.392;8.008;2023-06-22T14:59:50;22.30;99.90
3334;DHT22;1679;50.392;8.008;2023-06-22T15:02:16;21.80;99.90
3334;DHT22;1679;50.392;8.008;2023-06-22T15:04:42;21.10;99.90
3334;DHT22;1679;50.392;8.008;2023-06-22T15:07:08;20.30;99.90
3334;DHT22;1679;50.392;8.008;2023-06-22T15:09:33;19.90;99.90
3334;DHT22;1679;50.392;8.008;2023-06-22T15:11:59;19.70;99.90
3334;DHT22;1679;50.392;8.008;2023-06-22T15:14:27;19.60;99.90
3334;DHT22;1679;50.392;8.008;2023-06-22T15:16:52;19.60;99.90
3334;DHT22;1679;50.392;8.008;2023-06-22T15:19:18;19.60;99.90
3334;DHT22;1679;50.392;8.008;2023-06-22T15:21:44;19.70;99.90
3334;DHT22;1679;50.392;8.008;2023-06-22T15:24:09;19.80;99.90
3334;DHT22;1679;50.392;8.008;2023-06-22T15:26:35;20.00;99.90
3334;DHT22;1679;50.392;8.008;2023-06-22T15:29:00;20.10;99.90
3334;DHT22;1679;50.392;8.008;2023-06-22T15:31:27;20.30;99.90
3334;DHT22;1679;50.392;8.008;2023-06-22T15:33:52;20.30;99.90
3334;DHT22;1679;50.392;8.008;2023-06-22T15:36:18;20.40;99.90
3334;DHT22;1679;50.392;8.008;2023-06-22T15:38:44;20.50;99.90
3334;DHT22;1679;50.392;8.008;2023-06-22T15:41:09;20.50;99.90
3334;DHT22;1679;50.392;8.008;2023-06-22T15:43:35;20.60;99.90
3334;DHT22;1679;50.392;8.008;2023-06-22T15:46:01;20.70;99.90
3334;DHT22;1679;50.392;8.008;2023-06-22T15:48:27;20.70;99.90
3334;DHT22;1679;50.392;8.008;2023-06-22T15:50:52;20.80;99.90
3334;DHT22;1679;50.392;8.008;2023-06-22T15:53:19;20.90;99.90
3334;DHT22;1679;50.392;8.008;2023-06-22T15:55:45;20.90;99.90
3334;DHT22;1679;50.392;8.008;2023-06-22T15:58:12;20.80;99.90
3334;DHT22;1679;50.392;8.008;2023-06-22T16:00:38;20.80;99.90